sensor_id;sensor_type;location;lat;lon;timestamp;temperature;humidity
27741;DHT22;15134;48.768;9.184;2023-07-28T00:00:33;18.40;99.90
27741;DHT22;15134;48.768;9.184;2023-07-28T00:02:59;18.40;99.90
27741;DHT22;15134;48.768;9.184;2023-07-28T00:05:25;18.40;99.90
27741;DHT22;15134;48.768;9.184;2023-07-28T00:07:51;18.40;99.90
27741;DHT22;15134;48.768;9.184;2023-07-28T00:10:18;18.30;99.90
27741;DHT22;15134;48.768;9.184;2023-07-28T00:12:43;18.30;99.90
27741;DHT22;15134;48.768;9.184;2023-07-28T00:15:09;18.30;99.90
27741;DHT22;15134;48.768;9.184;2023-07-28T00:17:35;18.30;99.90
27741;DHT22;15134;48.768;9.184;2023-07-28T00:20:01;18.20;99.90
27741;DHT22;15134;48.768;9.184;2023-07-28T00:22:33;18.20;99.90
27741;DHT22;15134;48.768;9.184;2023-07-28T00:25:08;18.30;99.90
27741;DHT22;15134;48.768;9.184;2023-07-28T00:27:34;18.20;99.90
27741;DHT22;15134;48.768;9.184;2023-07-28T00:29:59;18.30;99.90
27741;DHT22;15134;48.768;9.184;2023-07-28T00:32:25;18.20;99.90
27741;DHT22;15134;48.768;9.184;2023-07-28T00:34:51;18.20;99.90
27741;DHT22;15134;48.768;9.184;2023-07-28T00:37:17;18.20;99.90
27741;DHT22;15134;48.768;9.184;2023-07-28T00:39:42;18.20;99.90
27741;DHT22;15134;48.768;9.184;2023-07-28T00:42:08;18.10;99.90
27741;DHT22;15134;48.768;9.184;2023-07-28T00:44:35;18.20;99.90
27741;DHT22;15134;48.768;9.184;2023-07-28T00:47:00;18.10;99.90
27741;DHT22;15134;48.768;9.184;2023-07-28T00:49:32;18.10;99.90
27741;DHT22;15134;48.768;9.184;2023-07-28T00:51:59;18.10;99.90
27741;DHT22;15134;48.768;9.184;2023-07-28T00:54:25;18.10;99.90
27741;DHT22;15134;48.768;9.184;2023-07-28T00:56:51;18.10;99.90
27741;DHT22;15134;48.768;9.184;2023-07-28T00:59:17;18.20;99.90
27741;DHT22;15134;48.768;9.184;2023-07-28T01:01:43;18.10;99.90
27741;DHT22;15134;48.768;9.184;2023-07-28T01:04:12;18.10;99.90
27741;DHT22;15134;48.768;9.184;2023-07-28T01:09:16;18.10;99.90
27741;DHT22;15134;48.768;9.184;2023-07-28T01:12:06;18.10;99.90
27741;DHT22;15134;48.768;9.184;2023-07-28T01:14:32;18.10;99.90
27741;DHT22;15134;48.768;9.184;2023-07-28T01:16:58;18.10;99.90
27741;DHT22;15134;48.768;9.184;2023-07-28T01:19:24;18.10;99.90
27741;DHT22;15134;48.768;9.184;2023-07-28T01:27:54;18.10;99.90
27741;DHT22;15134;48.768;9.184;2023-07-28T01:30:21;18.10;99.90
27741;DHT22;15134;48.768;9.184;2023-07-28T01:32:55;18.20;99.90
27741;DHT22;15134;48.768;9.184;2023-07-28T01:35:22;18.10;99.90
27741;DHT22;15134;48.768;9.184;2023-07-28T01:37:48;18.20;99.90
27741;DHT22;15134;48.768;9.184;2023-07-28T01:40:19;18.10;99.90
27741;DHT22;15134;48.768;9.184;2023-07-28T01:42:47;18.10;99.90
27741;DHT22;15134;48.768;9.184;2023-07-28T01:45:13;18.20;99.90
27741;DHT22;15134;48.768;9.184;2023-07-28T01:47:38;18.00;99.90
27741;DHT22;15134;48.768;9.184;2023-07-28T01:50:04;18.00;99.90
27741;DHT22;15134;48.768;9.184;2023-07-28T01:52:33;17.90;99.90
27741;DHT22;15134;48.768;9.184;2023-07-28T01:54:59;18.00;99.90
27741;DHT22;15134;48.768;9.184;2023-07-28T01:57:25;18.00;99.90
27741;DHT22;15134;48.768;9.184;2023-07-28T01:59:54;17.90;99.90
27741;DHT22;15134;48.768;9.184;2023-07-28T02:02:20;17.90;99.90
27741;DHT22;15134;48.768;9.184;2023-07-28T02:04:45;17.80;99.90
27741;DHT22;15134;48.768;9.184;2023-07-28T02:07:11;17.80;99.90
27741;DHT22;15134;48.768;9.184;2023-07-28T02:09:43;17.70;99.90
27741;DHT22;15134;48.768;9.184;2023-07-28T02:12:09;17.80;99.90
27741;DHT22;15134;48.768;9.184;2023-07-28T02:14:35;17.70;99.90
27741;DHT22;15134;48.768;9.184;2023-07-28T02:17:00;17.70;99.90
27741;DHT22;15134;48.768;9.184;2023-07-28T02:19:26;17.70;99.90
27741;DHT22;15134;48.768;9.184;2023-07-28T02:21:52;17.70;99.90
27741;DHT22;15134;48.768;9.184;2023-07-28T02:24:18;17.70;99.90
27741;DHT22;15134;48.768;9.184;2023-07-28T02:26:43;17.80;99.90
27741;DHT22;15134;48.768;9.184;2023-07-28T02:29:09;17.90;99.90
27741;DHT22;15134;48.768;9.184;2023-07-28T02:31:35;17.90;99.90
27741;DHT22;15134;48.768;9.184;2023-07-28T02:34:01;17.90;99.90
27741;DHT22;15134;48.768;9.184;2023-07-28T02:36:26;18.00;99.90
27741;DHT22;15134;48.768;9.184;2023-07-28T02:38:52;18.00;99.90
27741;DHT22;15134;48.768;9.184;2023-07-28T02:41:18;18.00;99.90
27741;DHT22;15134;48.768;9.184;2023-07-28T02:43:44;18.00;99.90
27741;DHT22;15134;48.768;9.184;2023-07-28T02:46:12;18.00;99.90
27741;DHT22;15134;48.768;9.184;2023-07-28T02:48:38;17.90;99.90
27741;DHT22;15134;48.768;9.184;2023-07-28T02:51:03;17.90;99.90
27741;DHT22;15134;48.768;9.184;2023-07-28T02:53:29;17.90;99.90
27741;DHT22;15134;48.768;9.184;2023-07-28T02:55:56;17.90;99.90
27741;DHT22;15134;48.768;9.184;2023-07-28T02:58:23;17.80;99.90
27741;DHT22;15134;48.768;9.184;2023-07-28T03:00:51;17.90;99.90
27741;DHT22;15134;48.768;9.184;2023-07-28T03:03:22;17.80;99.90
27741;DHT22;15134;48.768;9.184;2023-07-28T03:05:51;17.90;99.90
27741;DHT22;15134;48.768;9.184;2023-07-28T03:08:25;17.90;99.90
27741;DHT22;15134;48.768;9.184;2023-07-28T03:10:58;17.90;99.90
27741;DHT22;15134;48.768;9.184;2023-07-28T03:13:24;17.90;99.90
27741;DHT22;15134;48.768;9.184;2023-07-28T03:15:53;17.90;99.90
27741;DHT22;15134;48.768;9.184;2023-07-28T03:18:21;17.90;99.90
27741;DHT22;15134;48.768;9.184;2023-07-28T03:20:47;17.90;99.90
27741;DHT22;15134;48.768;9.184;2023-07-28T03:23:13;17.90;99.90
27741;DHT22;15134;48.768;9.184;2023-07-28T03:25:41;18.00;99.90
27741;DHT22;15134;48.768;9.184;2023-07-28T03:28:07;18.00;99.90
27741;DHT22;15134;48.768;9.184;2023-07-28T03:30:32;18.10;99.90
27741;DHT22;15134;48.768;9.184;2023-07-28T03:32:58;18.10;99.90
27741;DHT22;15134;48.768;9.184;2023-07-28T03:35:24;18.00;99.90
27741;DHT22;15134;48.768;9.184;2023-07-28T03:37:59;18.10;99.90
27741;DHT22;15134;48.768;9.184;2023-07-28T03:40:31;18.10;99.90
27741;DHT22;15134;48.768;9.184;2023-07-28T03:42:57;18.00;99.90
27741;DHT22;15134;48.768;9.184;2023-07-28T03:45:23;18.00;99.90
27741;DHT22;15134;48.768;9.184;2023-07-28T03:47:49;18.10;99.90
27741;DHT22;15134;48.768;9.184;2023-07-28T03:50:15;18.00;99.90
27741;DHT22;15134;48.768;9.184;2023-07-28T03:52:40;18.00;99.90
27741;DHT22;15134;48.768;9.184;2023-07-28T03:55:06;17.90;99.90
27741;DHT22;15134;48.768;9.184;2023-07-28T03:57:32;17.90;99.90
27741;DHT22;15134;48.768;9.184;2023-07-28T03:59:58;17.90;99.90
27741;DHT22;15134;48.768;9.184;2023-07-28T04:02:24;17.90;99.90
27741;DHT22;15134;48.768;9.184;2023-07-28T04:04:56;18.00;99.90
27741;DHT22;15134;48.768;9.184;2023-07-28T04:07:22;18.00;99.90
27741;DHT22;15134;48.768;9.184;2023-07-28T04:09:47;18.00;99.90
27741;DHT22;15134;48.768;9.184;2023-07-28T04:12:13;18.10;99.90
27741;DHT22;15134;48.768;9.184;2023-07-28T04:14:39;18.10;99.90
27741;DHT22;15134;48.768;9.184;2023-07-28T04:17:06;18.10;99.90
27741;DHT22;15134;48.768;9.184;2023-07-28T04:19:32;18.20;99.90
27741;DHT22;15134;48.768;9.184;2023-07-28T04:22:00;18.20;99.90
27741;DHT22;15134;48.768;9.184;2023-07-28T04:24:30;18.20;99.90
27741;DHT22;15134;48.768;9.184;2023-07-28T04:26:57;18.30;99.90
27741;DHT22;15134;48.768;9.184;2023-07-28T04:29:23;18.30;99.90
27741;DHT22;15134;48.768;9.184;2023-07-28T04:31:48;18.30;99.90
27741;DHT22;15134;48.768;9.184;2023-07-28T04:34:20;18.40;99.90
27741;DHT22;15134;48.768;9.184;2023-07-28T04:37:05;18.40;99.90
27741;DHT22;15134;48.768;9.184;2023-07-28T04:40:00;18.40;99.90
27741;DHT22;15134;48.768;9.184;2023-07-28T04:42:31;18.50;99.90
27741;DHT22;15134;48.768;9.184;2023-07-28T04:44:57;18.50;99.90
27741;DHT22;15134;48.768;9.184;2023-07-28T04:47:23;18.50;99.90
27741;DHT22;15134;48.768;9.184;2023-07-28T04:49:48;18.50;99.90
27741;DHT22;15134;48.768;9.184;2023-07-28T04:52:34;18.50;99.90
27741;DHT22;15134;48.768;9.184;2023-07-28T04:55:30;18.50;99.90
27741;DHT22;15134;48.768;9.184;2023-07-28T04:57:56;18.50;99.90
27741;DHT22;15134;48.768;9.184;2023-07-28T05:00:24;18.60;99.90
27741;DHT22;15134;48.768;9.184;2023-07-28T05:02:50;18.50;99.90
27741;DHT22;15134;48.768;9.184;2023-07-28T05:05:18;18.50;99.90
27741;DHT22;15134;48.768;9.184;2023-07-28T05:07:43;18.50;99.90
27741;DHT22;15134;48.768;9.184;2023-07-28T05:10:13;18.60;99.90
27741;DHT22;15134;48.768;9.184;2023-07-28T05:12:42;18.60;99.90
27741;DHT22;15134;48.768;9.184;2023-07-28T05:15:08;18.60;99.90
27741;DHT22;15134;48.768;9.184;2023-07-28T05:17:38;18.60;99.90
27741;DHT22;15134;48.768;9.184;2023-07-28T05:20:29;18.60;99.90
27741;DHT22;15134;48.768;9.184;2023-07-28T05:23:08;18.60;99.90
27741;DHT22;15134;48.768;9.184;2023-07-28T05:25:34;18.60;99.90
27741;DHT22;15134;48.768;9.184;2023-07-28T05:28:02;18.60;99.90
27741;DHT22;15134;48.768;9.184;2023-07-28T05:30:30;18.60;99.90
27741;DHT22;15134;48.768;9.184;2023-07-28T05:32:56;18.60;99.90
27741;DHT22;15134;48.768;9.184;2023-07-28T05:35:30;18.60;99.90
27741;DHT22;15134;48.768;9.184;2023-07-28T05:37:56;18.60;99.90
27741;DHT22;15134;48.768;9.184;2023-07-28T05:40:22;18.60;99.90
27741;DHT22;15134;48.768;9.184;2023-07-28T05:42:47;18.60;99.90
27741;DHT22;15134;48.768;9.184;2023-07-28T05:45:13;18.60;99.90
27741;DHT22;15134;48.768;9.184;2023-07-28T05:47:39;18.60;99.90
27741;DHT22;15134;48.768;9.184;2023-07-28T05:50:05;18.50;99.90
27741;DHT22;15134;48.768;9.184;2023-07-28T05:52:31;18.60;99.90
27741;DHT22;15134;48.768;9.184;2023-07-28T05:54:57;18.60;99.90
27741;DHT22;15134;48.768;9.184;2023-07-28T05:57:23;18.70;99.90
27741;DHT22;15134;48.768;9.184;2023-07-28T05:59:49;18.70;99.90
27741;DHT22;15134;48.768;9.184;2023-07-28T06:02:15;18.70;99.90
27741;DHT22;15134;48.768;9.184;2023-07-28T06:04:53;18.70;99.90
27741;DHT22;15134;48.768;9.184;2023-07-28T06:07:19;18.70;99.90
27741;DHT22;15134;48.768;9.184;2023-07-28T06:09:44;18.70;99.90
27741;DHT22;15134;48.768;9.184;2023-07-28T06:12:10;18.80;99.90
27741;DHT22;15134;48.768;9.184;2023-07-28T06:14:36;18.80;99.90
27741;DHT22;15134;48.768;9.184;2023-07-28T06:17:10;18.80;99.90
27741;DHT22;15134;48.768;9.184;2023-07-28T06:19:36;18.80;99.90
27741;DHT22;15134;48.768;9.184;2023-07-28T06:22:01;18.80;99.90
27741;DHT22;15134;48.768;9.184;2023-07-28T06:24:29;18.70;99.90
27741;DHT22;15134;48.768;9.184;2023-07-28T06:26:58;18.70;99.90
27741;DHT22;15134;48.768;9.184;2023-07-28T06:29:24;18.70;99.90
27741;DHT22;15134;48.768;9.184;2023-07-28T06:31:52;18.60;99.90
27741;DHT22;15134;48.768;9.184;2023-07-28T06:34:18;18.60;99.90
27741;DHT22;15134;48.768;9.184;2023-07-28T06:36:44;18.60;99.90
27741;DHT22;15134;48.768;9.184;2023-07-28T06:39:10;18.70;99.90
27741;DHT22;15134;48.768;9.184;2023-07-28T06:41:36;18.70;99.90
27741;DHT22;15134;48.768;9.184;2023-07-28T06:44:06;18.70;99.90
27741;DHT22;15134;48.768;9.184;2023-07-28T06:46:33;18.80;99.90
27741;DHT22;15134;48.768;9.184;2023-07-28T06:49:05;18.80;99.90
27741;DHT22;15134;48.768;9.184;2023-07-28T06:51:31;18.90;99.90
27741;DHT22;15134;48.768;9.184;2023-07-28T06:53:57;18.90;99.90
27741;DHT22;15134;48.768;9.184;2023-07-28T06:56:26;18.90;99.90
27741;DHT22;15134;48.768;9.184;2023-07-28T06:58:51;18.90;99.90
27741;DHT22;15134;48.768;9.184;2023-07-28T07:01:17;18.80;99.90
27741;DHT22;15134;48.768;9.184;2023-07-28T07:03:44;18.90;99.90
27741;DHT22;15134;48.768;9.184;2023-07-28T07:06:09;19.00;99.90
27741;DHT22;15134;48.768;9.184;2023-07-28T07:08:38;19.20;99.90
27741;DHT22;15134;48.768;9.184;2023-07-28T07:11:04;19.20;99.90
27741;DHT22;15134;48.768;9.184;2023-07-28T07:13:31;19.30;99.90
27741;DHT22;15134;48.768;9.184;2023-07-28T07:15:58;19.30;99.90
27741;DHT22;15134;48.768;9.184;2023-07-28T07:18:24;19.30;99.90
27741;DHT22;15134;48.768;9.184;2023-07-28T07:20:50;19.40;99.90
27741;DHT22;15134;48.768;9.184;2023-07-28T07:23:16;19.40;99.90
27741;DHT22;15134;48.768;9.184;2023-07-28T07:25:42;19.40;99.90
27741;DHT22;15134;48.768;9.184;2023-07-28T07:28:08;19.40;99.90
27741;DHT22;15134;48.768;9.184;2023-07-28T07:30:34;19.50;99.90
27741;DHT22;15134;48.768;9.184;2023-07-28T07:33:00;19.50;99.90
27741;DHT22;15134;48.768;9.184;2023-07-28T07:35:26;19.60;99.90
27741;DHT22;15134;48.768;9.184;2023-07-28T07:37:51;19.70;99.90
27741;DHT22;15134;48.768;9.184;2023-07-28T07:40:17;19.80;99.90
27741;DHT22;15134;48.768;9.184;2023-07-28T07:42:47;19.90;99.90
27741;DHT22;15134;48.768;9.184;2023-07-28T07:45:14;20.00;99.90
27741;DHT22;15134;48.768;9.184;2023-07-28T07:47:43;20.30;99.90
27741;DHT22;15134;48.768;9.184;2023-07-28T07:50:10;20.60;99.90
27741;DHT22;15134;48.768;9.184;2023-07-28T07:52:37;20.60;99.90
27741;DHT22;15134;48.768;9.184;2023-07-28T07:55:08;20.70;99.90
27741;DHT22;15134;48.768;9.184;2023-07-28T07:57:35;20.70;99.90
27741;DHT22;15134;48.768;9.184;2023-07-28T08:00:00;20.60;99.90
27741;DHT22;15134;48.768;9.184;2023-07-28T08:02:26;20.50;99.90
27741;DHT22;15134;48.768;9.184;2023-07-28T08:04:54;20.50;99.90
27741;DHT22;15134;48.768;9.184;2023-07-28T08:07:21;20.40;99.90
27741;DHT22;15134;48.768;9.184;2023-07-28T08:09:47;20.40;99.90
27741;DHT22;15134;48.768;9.184;2023-07-28T08:12:15;20.40;99.90
27741;DHT22;15134;48.768;9.184;2023-07-28T08:14:41;20.50;99.90
27741;DHT22;15134;48.768;9.184;2023-07-28T08:17:08;20.50;99.90
27741;DHT22;15134;48.768;9.184;2023-07-28T08:19:34;20.50;99.90
27741;DHT22;15134;48.768;9.184;2023-07-28T08:22:01;20.50;99.90
27741;DHT22;15134;48.768;9.184;2023-07-28T08:24:32;20.50;99.90
27741;DHT22;15134;48.768;9.184;2023-07-28T08:26:57;20.40;99.90
27741;DHT22;15134;48.768;9.184;2023-07-28T08:29:23;20.30;99.90
27741;DHT22;15134;48.768;9.184;2023-07-28T08:31:49;20.30;99.90
27741;DHT22;15134;48.768;9.184;2023-07-28T08:34:19;20.40;99.90
27741;DHT22;15134;48.768;9.184;2023-07-28T08:36:45;20.50;99.90
27741;DHT22;15134;48.768;9.184;2023-07-28T08:39:11;20.70;99.90
27741;DHT22;15134;48.768;9.184;2023-07-28T08:41:37;21.00;99.90
27741;DHT22;15134;48.768;9.184;2023-07-28T08:44:12;21.10;99.90
27741;DHT22;15134;48.768;9.184;2023-07-28T08:46:37;21.10;99.90
27741;DHT22;15134;48.768;9.184;2023-07-28T08:49:09;21.10;99.90
27741;DHT22;15134;48.768;9.184;2023-07-28T08:51:41;21.00;99.90
27741;DHT22;15134;48.768;9.184;2023-07-28T08:54:07;21.00;99.90
27741;DHT22;15134;48.768;9.184;2023-07-28T08:56:33;20.90;99.90
27741;DHT22;15134;48.768;9.184;2023-07-28T08:58:59;20.90;99.90
27741;DHT22;15134;48.768;9.184;2023-07-28T09:01:38;21.00;99.90
27741;DHT22;15134;48.768;9.184;2023-07-28T09:04:10;20.90;99.90
27741;DHT22;15134;48.768;9.184;2023-07-28T09:06:36;21.00;99.90
27741;DHT22;15134;48.768;9.184;2023-07-28T09:09:05;21.10;99.90
27741;DHT22;15134;48.768;9.184;2023-07-28T09:11:44;21.20;99.90
27741;DHT22;15134;48.768;9.184;2023-07-28T09:14:12;21.30;99.90
27741;DHT22;15134;48.768;9.184;2023-07-28T09:16:53;21.30;99.90
27741;DHT22;15134;48.768;9.184;2023-07-28T09:19:20;21.20;99.90
27741;DHT22;15134;48.768;9.184;2023-07-28T09:22:00;21.20;99.90
27741;DHT22;15134;48.768;9.184;2023-07-28T09:24:33;21.00;99.90
27741;DHT22;15134;48.768;9.184;2023-07-28T09:27:00;21.00;99.90
27741;DHT22;15134;48.768;9.184;2023-07-28T09:29:26;20.90;99.90
27741;DHT22;15134;48.768;9.184;2023-07-28T09:32:11;20.80;99.90
27741;DHT22;15134;48.768;9.184;2023-07-28T09:34:37;20.70;99.90
27741;DHT22;15134;48.768;9.184;2023-07-28T09:37:11;20.80;99.90
27741;DHT22;15134;48.768;9.184;2023-07-28T09:39:40;20.90;99.90
27741;DHT22;15134;48.768;9.184;2023-07-28T09:42:13;20.90;99.90
27741;DHT22;15134;48.768;9.184;2023-07-28T09:44:39;20.90;99.90
27741;DHT22;15134;48.768;9.184;2023-07-28T09:47:09;21.50;99.90
27741;DHT22;15134;48.768;9.184;2023-07-28T09:49:35;21.90;99.90
27741;DHT22;15134;48.768;9.184;2023-07-28T09:52:05;22.10;99.90
27741;DHT22;15134;48.768;9.184;2023-07-28T09:54:41;22.50;99.90
27741;DHT22;15134;48.768;9.184;2023-07-28T09:57:12;22.60;99.90
27741;DHT22;15134;48.768;9.184;2023-07-28T09:59:40;22.70;99.90
27741;DHT22;15134;48.768;9.184;2023-07-28T10:02:09;22.60;99.90
27741;DHT22;15134;48.768;9.184;2023-07-28T10:04:36;22.50;99.90
27741;DHT22;15134;48.768;9.184;2023-07-28T10:07:03;22.40;99.90
27741;DHT22;15134;48.768;9.184;2023-07-28T10:09:33;22.20;99.90
27741;DHT22;15134;48.768;9.184;2023-07-28T10:12:00;22.30;99.90
27741;DHT22;15134;48.768;9.184;2023-07-28T10:16:53;22.60;99.90
27741;DHT22;15134;48.768;9.184;2023-07-28T10:19:25;22.50;99.90
27741;DHT22;15134;48.768;9.184;2023-07-28T10:22:06;22.40;99.90
27741;DHT22;15134;48.768;9.184;2023-07-28T10:25:01;22.10;99.90
27741;DHT22;15134;48.768;9.184;2023-07-28T10:27:37;22.00;99.90
27741;DHT22;15134;48.768;9.184;2023-07-28T10:30:12;22.00;99.90
27741;DHT22;15134;48.768;9.184;2023-07-28T10:32:42;22.00;99.90
27741;DHT22;15134;48.768;9.184;2023-07-28T10:37:37;21.90;99.90
27741;DHT22;15134;48.768;9.184;2023-07-28T10:40:34;21.90;99.90
27741;DHT22;15134;48.768;9.184;2023-07-28T10:43:03;21.90;99.90
27741;DHT22;15134;48.768;9.184;2023-07-28T10:45:33;21.90;99.90
27741;DHT22;15134;48.768;9.184;2023-07-28T10:48:01;22.00;99.90
27741;DHT22;15134;48.768;9.184;2023-07-28T10:50:37;21.90;99.90
27741;DHT22;15134;48.768;9.184;2023-07-28T10:53:03;21.90;99.90
27741;DHT22;15134;48.768;9.184;2023-07-28T10:55:29;21.90;99.90
27741;DHT22;15134;48.768;9.184;2023-07-28T10:57:58;21.90;99.90
27741;DHT22;15134;48.768;9.184;2023-07-28T11:00:24;21.90;99.90
27741;DHT22;15134;48.768;9.184;2023-07-28T11:02:54;22.00;99.90
27741;DHT22;15134;48.768;9.184;2023-07-28T11:05:28;22.10;99.90
27741;DHT22;15134;48.768;9.184;2023-07-28T11:07:59;22.40;99.90
27741;DHT22;15134;48.768;9.184;2023-07-28T11:10:28;22.60;99.90
27741;DHT22;15134;48.768;9.184;2023-07-28T11:13:01;23.10;99.90
27741;DHT22;15134;48.768;9.184;2023-07-28T11:15:27;23.40;99.90
27741;DHT22;15134;48.768;9.184;2023-07-28T11:17:54;23.50;99.90
27741;DHT22;15134;48.768;9.184;2023-07-28T11:20:23;23.60;99.90
27741;DHT22;15134;48.768;9.184;2023-07-28T11:22:53;23.50;99.90
27741;DHT22;15134;48.768;9.184;2023-07-28T11:25:23;23.40;99.90
27741;DHT22;15134;48.768;9.184;2023-07-28T11:27:51;23.50;99.90
27741;DHT22;15134;48.768;9.184;2023-07-28T11:30:23;23.70;99.90
27741;DHT22;15134;48.768;9.184;2023-07-28T11:32:53;23.90;99.90
27741;DHT22;15134;48.768;9.184;2023-07-28T11:35:24;23.90;99.90
27741;DHT22;15134;48.768;9.184;2023-07-28T11:37:52;23.90;99.90
27741;DHT22;15134;48.768;9.184;2023-07-28T11:40:22;24.00;99.90
27741;DHT22;15134;48.768;9.184;2023-07-28T11:42:50;23.90;99.90
27741;DHT22;15134;48.768;9.184;2023-07-28T11:45:21;23.90;99.90
27741;DHT22;15134;48.768;9.184;2023-07-28T11:48:04;24.00;99.90
27741;DHT22;15134;48.768;9.184;2023-07-28T11:50:39;24.00;99.90
27741;DHT22;15134;48.768;9.184;2023-07-28T11:53:06;24.00;99.90
27741;DHT22;15134;48.768;9.184;2023-07-28T11:55:36;23.80;99.90
27741;DHT22;15134;48.768;9.184;2023-07-28T11:58:02;23.60;99.90
27741;DHT22;15134;48.768;9.184;2023-07-28T12:00:37;23.50;99.90
27741;DHT22;15134;48.768;9.184;2023-07-28T12:03:12;23.40;99.90
27741;DHT22;15134;48.768;9.184;2023-07-28T12:05:39;23.20;99.90
27741;DHT22;15134;48.768;9.184;2023-07-28T12:08:11;23.10;99.90
27741;DHT22;15134;48.768;9.184;2023-07-28T12:10:37;22.90;99.90
27741;DHT22;15134;48.768;9.184;2023-07-28T12:13:07;22.80;99.90
27741;DHT22;15134;48.768;9.184;2023-07-28T12:15:34;22.60;99.90
27741;DHT22;15134;48.768;9.184;2023-07-28T12:18:14;22.50;99.90
27741;DHT22;15134;48.768;9.184;2023-07-28T12:20:42;22.40;99.90
27741;DHT22;15134;48.768;9.184;2023-07-28T12:23:13;22.30;99.90
27741;DHT22;15134;48.768;9.184;2023-07-28T12:25:39;22.30;99.90
27741;DHT22;15134;48.768;9.184;2023-07-28T12:28:05;22.40;99.90
27741;DHT22;15134;48.768;9.184;2023-07-28T12:30:34;22.40;99.90
27741;DHT22;15134;48.768;9.184;2023-07-28T12:33:01;22.60;99.90
27741;DHT22;15134;48.768;9.184;2023-07-28T12:35:27;22.80;99.90
27741;DHT22;15134;48.768;9.184;2023-07-28T12:38:03;22.80;99.90
27741;DHT22;15134;48.768;9.184;2023-07-28T12:40:36;22.80;99.90
27741;DHT22;15134;48.768;9.184;2023-07-28T12:43:02;22.80;99.90
27741;DHT22;15134;48.768;9.184;2023-07-28T12:45:28;22.80;99.90
27741;DHT22;15134;48.768;9.184;2023-07-28T12:47:55;22.80;99.90
27741;DHT22;15134;48.768;9.184;2023-07-28T12:50:24;23.00;99.90
27741;DHT22;15134;48.768;9.184;2023-07-28T12:52:50;23.20;99.90
27741;DHT22;15134;48.768;9.184;2023-07-28T12:55:17;23.30;99.90
27741;DHT22;15134;48.768;9.184;2023-07-28T12:57:46;23.50;99.90
27741;DHT22;15134;48.768;9.184;2023-07-28T13:00:14;23.50;99.90
27741;DHT22;15134;48.768;9.184;2023-07-28T13:02:47;23.50;99.90
27741;DHT22;15134;48.768;9.184;2023-07-28T13:05:14;23.60;99.90
27741;DHT22;15134;48.768;9.184;2023-07-28T13:07:41;23.60;99.90
27741;DHT22;15134;48.768;9.184;2023-07-28T13:10:09;23.50;99.90
27741;DHT22;15134;48.768;9.184;2023-07-28T13:12:36;23.50;99.90
27741;DHT22;15134;48.768;9.184;2023-07-28T13:15:06;23.40;99.90
27741;DHT22;15134;48.768;9.184;2023-07-28T13:17:31;23.40;99.90
27741;DHT22;15134;48.768;9.184;2023-07-28T13:19:57;23.30;99.90
27741;DHT22;15134;48.768;9.184;2023-07-28T13:22:24;23.20;99.90
27741;DHT22;15134;48.768;9.184;2023-07-28T13:24:49;23.20;99.90
27741;DHT22;15134;48.768;9.184;2023-07-28T13:27:15;23.10;99.90
27741;DHT22;15134;48.768;9.184;2023-07-28T13:29:41;23.10;99.90
27741;DHT22;15134;48.768;9.184;2023-07-28T13:32:18;23.00;99.90
27741;DHT22;15134;48.768;9.184;2023-07-28T13:34:50;22.90;99.90
27741;DHT22;15134;48.768;9.184;2023-07-28T13:37:17;22.70;99.90
27741;DHT22;15134;48.768;9.184;2023-07-28T13:39:46;22.50;99.90
27741;DHT22;15134;48.768;9.184;2023-07-28T13:42:12;22.40;99.90
27741;DHT22;15134;48.768;9.184;2023-07-28T13:44:39;22.30;99.90
27741;DHT22;15134;48.768;9.184;2023-07-28T13:47:05;22.20;99.90
27741;DHT22;15134;48.768;9.184;2023-07-28T13:49:34;22.00;99.90
27741;DHT22;15134;48.768;9.184;2023-07-28T13:52:03;21.90;99.90
27741;DHT22;15134;48.768;9.184;2023-07-28T13:54:29;21.70;99.90
27741;DHT22;15134;48.768;9.184;2023-07-28T13:57:01;21.60;99.90
27741;DHT22;15134;48.768;9.184;2023-07-28T13:59:27;21.40;99.90
27741;DHT22;15134;48.768;9.184;2023-07-28T14:01:53;21.10;99.90
27741;DHT22;15134;48.768;9.184;2023-07-28T14:04:18;21.00;99.90
27741;DHT22;15134;48.768;9.184;2023-07-28T14:06:44;20.90;99.90
27741;DHT22;15134;48.768;9.184;2023-07-28T14:09:10;20.90;99.90
27741;DHT22;15134;48.768;9.184;2023-07-28T14:11:36;20.70;99.90
27741;DHT22;15134;48.768;9.184;2023-07-28T14:14:02;20.50;99.90
27741;DHT22;15134;48.768;9.184;2023-07-28T14:16:28;20.30;99.90
27741;DHT22;15134;48.768;9.184;2023-07-28T14:18:53;20.10;99.90
27741;DHT22;15134;48.768;9.184;2023-07-28T14:21:19;20.00;99.90
27741;DHT22;15134;48.768;9.184;2023-07-28T14:23:45;20.00;99.90
27741;DHT22;15134;48.768;9.184;2023-07-28T14:26:11;19.90;99.90
27741;DHT22;15134;48.768;9.184;2023-07-28T14:28:36;20.00;99.90
27741;DHT22;15134;48.768;9.184;2023-07-28T14:31:02;20.10;99.90
27741;DHT22;15134;48.768;9.184;2023-07-28T14:33:31;20.30;99.90
27741;DHT22;15134;48.768;9.184;2023-07-28T14:35:56;20.40;99.90
27741;DHT22;15134;48.768;9.184;2023-07-28T14:38:22;20.60;99.90
27741;DHT22;15134;48.768;9.184;2023-07-28T14:40:48;20.60;99.90
27741;DHT22;15134;48.768;9.184;2023-07-28T14:43:15;20.60;99.90
27741;DHT22;15134;48.768;9.184;2023-07-28T14:45:41;20.70;99.90
27741;DHT22;15134;48.768;9.184;2023-07-28T14:48:10;20.70;99.90
27741;DHT22;15134;48.768;9.184;2023-07-28T14:50:36;20.70;99.90
27741;DHT22;15134;48.768;9.184;2023-07-28T14:53:02;20.70;99.90
27741;DHT22;15134;48.768;9.184;2023-07-28T14:55:28;20.70;99.90
27741;DHT22;15134;48.768;9.184;2023-07-28T14:57:53;20.70;99.90
27741;DHT22;15134;48.768;9.184;2023-07-28T15:00:19;20.70;99.90
27741;DHT22;15134;48.768;9.184;2023-07-28T15:02:45;20.70;99.90
27741;DHT22;15134;48.768;9.184;2023-07-28T15:05:22;20.70;99.90
27741;DHT22;15134;48.768;9.184;2023-07-28T15:07:47;20.70;99.90
27741;DHT22;15134;48.768;9.184;2023-07-28T15:10:13;20.80;99.90
27741;DHT22;15134;48.768;9.184;2023-07-28T15:12:39;20.70;99.90
27741;DHT22;15134;48.768;9.184;2023-07-28T15:15:05;20.60;99.90
27741;DHT22;15134;48.768;9.184;2023-07-28T15:17:34;20.60;99.90
27741;DHT22;15134;48.768;9.184;2023-07-28T15:20:00;20.70;99.90
27741;DHT22;15134;48.768;9.184;2023-07-28T15:22:25;20.80;99.90
27741;DHT22;15134;48.768;9.184;2023-07-28T15:24:51;20.90;99.90
27741;DHT22;15134;48.768;9.184;2023-07-28T15:27:17;21.00;99.90
27741;DHT22;15134;48.768;9.184;2023-07-28T15:29:42;21.10;99.90
27741;DHT22;15134;48.768;9.184;2023-07-28T15:32:08;21.10;99.90
27741;DHT22;15134;48.768;9.184;2023-07-28T15:34:34;21.20;99.90
27741;DHT22;15134;48.768;9.184;2023-07-28T15:37:00;21.20;99.90
27741;DHT22;15134;48.768;9.184;2023-07-28T15:39:31;21.20;99.90
27741;DHT22;15134;48.768;9.184;2023-07-28T15:41:57;21.20;99.90
27741;DHT22;15134;48.768;9.184;2023-07-28T15:44:22;21.10;99.90
27741;DHT22;15134;48.768;9.184;2023-07-28T15:46:50;21.00;99.90
27741;DHT22;15134;48.768;9.184;2023-07-28T15:49:17;20.90;99.90